sensor_id;sensor_type;location;lat;lon;timestamp;P1;durP1;ratioP1;P2;durP2;ratioP2
23222;SDS011;11780;13.904;100.620;2024-01-10T00:02:22;86.43;;;76.95;;
23222;SDS011;11780;13.904;100.620;2024-01-10T00:04:53;97.07;;;87.23;;
23222;SDS011;11780;13.904;100.620;2024-01-10T00:07:23;92.47;;;81.70;;
23222;SDS011;11780;13.904;100.620;2024-01-10T00:09:54;93.75;;;83.85;;
23222;SDS011;11780;13.904;100.620;2024-01-10T00:12:25;95.57;;;84.00;;
23222;SDS011;11780;13.904;100.620;2024-01-10T00:14:55;100.37;;;89.90;;
23222;SDS011;11780;13.904;100.620;2024-01-10T00:17:26;99.68;;;88.85;;
23222;SDS011;11780;13.904;100.620;2024-01-10T00:19:56;93.88;;;83.78;;
23222;SDS011;11780;13.904;100.620;2024-01-10T00:22:27;96.90;;;86.27;;
23222;SDS011;11780;13.904;100.620;2024-01-10T00:24:57;102.32;;;91.57;;
23222;SDS011;11780;13.904;100.620;2024-01-10T00:27:27;94.95;;;85.30;;
23222;SDS011;11780;13.904;100.620;2024-01-10T00:29:58;98.18;;;87.43;;
23222;SDS011;11780;13.904;100.620;2024-01-10T00:32:28;97.78;;;87.75;;
23222;SDS011;11780;13.904;100.620;2024-01-10T00:34:59;96.87;;;87.03;;
23222;SDS011;11780;13.904;100.620;2024-01-10T00:37:29;93.82;;;83.63;;
23222;SDS011;11780;13.904;100.620;2024-01-10T00:39:59;99.53;;;89.53;;
23222;SDS011;11780;13.904;100.620;2024-01-10T00:42:30;99.45;;;88.88;;
23222;SDS011;11780;13.904;100.620;2024-01-10T00:45:00;102.35;;;91.47;;
23222;SDS011;11780;13.904;100.620;2024-01-10T00:47:31;99.38;;;88.25;;
23222;SDS011;11780;13.904;100.620;2024-01-10T00:50:01;95.72;;;85.53;;
23222;SDS011;11780;13.904;100.620;2024-01-10T00:52:32;94.15;;;84.07;;
23222;SDS011;11780;13.904;100.620;2024-01-10T00:55:02;95.60;;;85.45;;
23222;SDS011;11780;13.904;100.620;2024-01-10T00:57:32;98.43;;;88.20;;
23222;SDS011;11780;13.904;100.620;2024-01-10T01:00:03;100.43;;;89.93;;
23222;SDS011;11780;13.904;100.620;2024-01-10T01:02:38;100.30;;;89.60;;
23222;SDS011;11780;13.904;100.620;2024-01-10T01:05:11;101.07;;;90.07;;
23222;SDS011;11780;13.904;100.620;2024-01-10T01:07:42;95.23;;;85.27;;
23222;SDS011;11780;13.904;100.620;2024-01-10T01:10:12;95.07;;;85.30;;
23222;SDS011;11780;13.904;100.620;2024-01-10T01:12:43;95.13;;;85.07;;
23222;SDS011;11780;13.904;100.620;2024-01-10T01:15:13;92.20;;;82.80;;
23222;SDS011;11780;13.904;100.620;2024-01-10T01:17:44;90.53;;;80.80;;
23222;SDS011;11780;13.904;100.620;2024-01-10T01:20:14;97.22;;;87.10;;
23222;SDS011;11780;13.904;100.620;2024-01-10T01:22:44;96.33;;;86.37;;
23222;SDS011;11780;13.904;100.620;2024-01-10T01:25:15;103.95;;;92.78;;
23222;SDS011;11780;13.904;100.620;2024-01-10T01:27:45;97.43;;;87.07;;
23222;SDS011;11780;13.904;100.620;2024-01-10T01:30:16;94.27;;;84.37;;
23222;SDS011;11780;13.904;100.620;2024-01-10T01:32:46;95.13;;;85.20;;
23222;SDS011;11780;13.904;100.620;2024-01-10T01:35:17;92.67;;;82.93;;
23222;SDS011;11780;13.904;100.620;2024-01-10T01:37:51;93.47;;;83.95;;
23222;SDS011;11780;13.904;100.620;2024-01-10T01:40:21;101.97;;;91.22;;
23222;SDS011;11780;13.904;100.620;2024-01-10T01:42:51;95.45;;;85.47;;
23222;SDS011;11780;13.904;100.620;2024-01-10T01:47:54;96.67;;;87.00;;
23222;SDS011;11780;13.904;100.620;2024-01-10T01:50:25;91.47;;;81.90;;
23222;SDS011;11780;13.904;100.620;2024-01-10T01:52:55;87.90;;;78.50;;
23222;SDS011;11780;13.904;100.620;2024-01-10T01:55:25;87.53;;;78.38;;
23222;SDS011;11780;13.904;100.620;2024-01-10T01:57:56;90.18;;;80.75;;
23222;SDS011;11780;13.904;100.620;2024-01-10T02:00:26;89.30;;;80.17;;
23222;SDS011;11780;13.904;100.620;2024-01-10T02:02:58;94.50;;;83.63;;
23222;SDS011;11780;13.904;100.620;2024-01-10T02:05:29;90.72;;;80.85;;
23222;SDS011;11780;13.904;100.620;2024-01-10T02:08:00;85.63;;;76.33;;
23222;SDS011;11780;13.904;100.620;2024-01-10T02:10:30;86.70;;;77.60;;
23222;SDS011;11780;13.904;100.620;2024-01-10T02:13:01;82.63;;;74.03;;
23222;SDS011;11780;13.904;100.620;2024-01-10T02:15:32;80.17;;;71.50;;
23222;SDS011;11780;13.904;100.620;2024-01-10T02:18:02;81.10;;;72.03;;
23222;SDS011;11780;13.904;100.620;2024-01-10T02:20:35;82.13;;;73.45;;
23222;SDS011;11780;13.904;100.620;2024-01-10T02:23:05;78.70;;;70.30;;
23222;SDS011;11780;13.904;100.620;2024-01-10T02:25:36;79.97;;;71.33;;
23222;SDS011;11780;13.904;100.620;2024-01-10T02:28:07;80.40;;;71.78;;
23222;SDS011;11780;13.904;100.620;2024-01-10T02:30:41;77.40;;;69.32;;
23222;SDS011;11780;13.904;100.620;2024-01-10T02:33:11;67.83;;;60.63;;
23222;SDS011;11780;13.904;100.620;2024-01-10T02:35:42;69.33;;;62.07;;
23222;SDS011;11780;13.904;100.620;2024-01-10T02:38:12;70.03;;;62.83;;
23222;SDS011;11780;13.904;100.620;2024-01-10T02:40:43;67.33;;;60.07;;
23222;SDS011;11780;13.904;100.620;2024-01-10T02:43:13;64.63;;;58.07;;
23222;SDS011;11780;13.904;100.620;2024-01-10T02:45:44;62.65;;;56.00;;
23222;SDS011;11780;13.904;100.620;2024-01-10T02:48:14;59.63;;;53.57;;
23222;SDS011;11780;13.904;100.620;2024-01-10T02:50:45;60.10;;;53.90;;
23222;SDS011;11780;13.904;100.620;2024-01-10T02:53:15;57.40;;;51.58;;
23222;SDS011;11780;13.904;100.620;2024-01-10T02:55:46;56.30;;;50.65;;
23222;SDS011;11780;13.904;100.620;2024-01-10T02:58:17;56.08;;;50.38;;
23222;SDS011;11780;13.904;100.620;2024-01-10T03:00:48;55.83;;;49.80;;
23222;SDS011;11780;13.904;100.620;2024-01-10T03:03:18;52.58;;;46.88;;
23222;SDS011;11780;13.904;100.620;2024-01-10T03:05:49;52.40;;;47.13;;
23222;SDS011;11780;13.904;100.620;2024-01-10T03:08:19;50.53;;;45.45;;
23222;SDS011;11780;13.904;100.620;2024-01-10T03:10:50;53.03;;;47.60;;
23222;SDS011;11780;13.904;100.620;2024-01-10T03:13:20;51.65;;;46.50;;
23222;SDS011;11780;13.904;100.620;2024-01-10T03:15:50;51.55;;;46.28;;
23222;SDS011;11780;13.904;100.620;2024-01-10T03:18:21;56.05;;;46.58;;
23222;SDS011;11780;13.904;100.620;2024-01-10T03:20:51;54.13;;;48.28;;
23222;SDS011;11780;13.904;100.620;2024-01-10T03:23:22;53.55;;;47.85;;
23222;SDS011;11780;13.904;100.620;2024-01-10T03:25:52;52.17;;;46.73;;
23222;SDS011;11780;13.904;100.620;2024-01-10T03:28:23;47.63;;;42.20;;
23222;SDS011;11780;13.904;100.620;2024-01-10T03:30:53;50.20;;;42.60;;
23222;SDS011;11780;13.904;100.620;2024-01-10T03:33:24;45.87;;;41.20;;
23222;SDS011;11780;13.904;100.620;2024-01-10T03:35:54;48.10;;;42.67;;
23222;SDS011;11780;13.904;100.620;2024-01-10T03:38:25;46.90;;;42.17;;
23222;SDS011;11780;13.904;100.620;2024-01-10T03:40:55;44.63;;;39.95;;
23222;SDS011;11780;13.904;100.620;2024-01-10T03:43:25;45.63;;;40.80;;
23222;SDS011;11780;13.904;100.620;2024-01-10T03:45:58;45.13;;;40.35;;
23222;SDS011;11780;13.904;100.620;2024-01-10T03:48:29;44.60;;;39.85;;
23222;SDS011;11780;13.904;100.620;2024-01-10T03:50:59;42.10;;;37.75;;
23222;SDS011;11780;13.904;100.620;2024-01-10T03:53:30;43.80;;;39.38;;
23222;SDS011;11780;13.904;100.620;2024-01-10T03:56:03;42.30;;;38.03;;
23222;SDS011;11780;13.904;100.620;2024-01-10T03:58:34;40.65;;;36.35;;
23222;SDS011;11780;13.904;100.620;2024-01-10T04:01:05;40.17;;;36.10;;
23222;SDS011;11780;13.904;100.620;2024-01-10T04:03:36;43.83;;;38.92;;
23222;SDS011;11780;13.904;100.620;2024-01-10T04:06:07;41.70;;;37.35;;
23222;SDS011;11780;13.904;100.620;2024-01-10T04:08:38;41.10;;;36.67;;
23222;SDS011;11780;13.904;100.620;2024-01-10T04:11:09;40.40;;;36.13;;
23222;SDS011;11780;13.904;100.620;2024-01-10T04:13:39;41.23;;;36.27;;
23222;SDS011;11780;13.904;100.620;2024-01-10T04:16:09;45.22;;;38.50;;
23222;SDS011;11780;13.904;100.620;2024-01-10T04:18:40;40.38;;;36.05;;
23222;SDS011;11780;13.904;100.620;2024-01-10T04:21:11;42.28;;;37.85;;
23222;SDS011;11780;13.904;100.620;2024-01-10T04:23:42;40.35;;;36.08;;
23222;SDS011;11780;13.904;100.620;2024-01-10T04:26:12;40.33;;;36.27;;
23222;SDS011;11780;13.904;100.620;2024-01-10T04:28:42;39.50;;;35.23;;
23222;SDS011;11780;13.904;100.620;2024-01-10T04:31:13;38.07;;;34.00;;
23222;SDS011;11780;13.904;100.620;2024-01-10T04:33:43;39.15;;;35.10;;
23222;SDS011;11780;13.904;100.620;2024-01-10T04:36:14;38.47;;;33.45;;
23222;SDS011;11780;13.904;100.620;2024-01-10T04:38:44;38.67;;;34.25;;
23222;SDS011;11780;13.904;100.620;2024-01-10T04:41:15;37.00;;;32.23;;
23222;SDS011;11780;13.904;100.620;2024-01-10T04:43:45;36.13;;;32.57;;
23222;SDS011;11780;13.904;100.620;2024-01-10T04:46:16;35.97;;;31.90;;
23222;SDS011;11780;13.904;100.620;2024-01-10T04:48:46;34.63;;;31.30;;
23222;SDS011;11780;13.904;100.620;2024-01-10T04:51:17;36.37;;;31.97;;
23222;SDS011;11780;13.904;100.620;2024-01-10T04:53:47;35.20;;;31.30;;
23222;SDS011;11780;13.904;100.620;2024-01-10T04:56:18;37.77;;;33.87;;
23222;SDS011;11780;13.904;100.620;2024-01-10T04:58:48;35.53;;;32.00;;
23222;SDS011;11780;13.904;100.620;2024-01-10T05:01:19;35.07;;;31.57;;
23222;SDS011;11780;13.904;100.620;2024-01-10T05:03:49;34.77;;;31.27;;
23222;SDS011;11780;13.904;100.620;2024-01-10T05:06:20;33.40;;;30.08;;
23222;SDS011;11780;13.904;100.620;2024-01-10T05:08:50;36.75;;;29.77;;
23222;SDS011;11780;13.904;100.620;2024-01-10T05:11:21;34.33;;;30.73;;
23222;SDS011;11780;13.904;100.620;2024-01-10T05:13:52;34.43;;;30.50;;
23222;SDS011;11780;13.904;100.620;2024-01-10T05:16:22;32.10;;;28.67;;
23222;SDS011;11780;13.904;100.620;2024-01-10T05:18:53;36.53;;;28.87;;
23222;SDS011;11780;13.904;100.620;2024-01-10T05:21:23;30.73;;;27.48;;
23222;SDS011;11780;13.904;100.620;2024-01-10T05:23:54;33.65;;;30.13;;
23222;SDS011;11780;13.904;100.620;2024-01-10T05:26:24;32.45;;;29.13;;
23222;SDS011;11780;13.904;100.620;2024-01-10T05:28:54;34.17;;;30.27;;
23222;SDS011;11780;13.904;100.620;2024-01-10T05:31:25;32.58;;;29.20;;
23222;SDS011;11780;13.904;100.620;2024-01-10T05:33:55;31.92;;;28.50;;
23222;SDS011;11780;13.904;100.620;2024-01-10T05:36:25;32.22;;;28.85;;
23222;SDS011;11780;13.904;100.620;2024-01-10T05:38:55;34.28;;;30.98;;
23222;SDS011;11780;13.904;100.620;2024-01-10T05:41:26;31.87;;;28.30;;
23222;SDS011;11780;13.904;100.620;2024-01-10T05:43:57;31.85;;;28.52;;
23222;SDS011;11780;13.904;100.620;2024-01-10T05:46:27;32.80;;;28.60;;
23222;SDS011;11780;13.904;100.620;2024-01-10T05:48:57;32.05;;;29.05;;
23222;SDS011;11780;13.904;100.620;2024-01-10T05:51:28;33.23;;;29.90;;
23222;SDS011;11780;13.904;100.620;2024-01-10T05:53:58;33.92;;;30.33;;
23222;SDS011;11780;13.904;100.620;2024-01-10T05:56:29;33.47;;;29.95;;
23222;SDS011;11780;13.904;100.620;2024-01-10T05:58:59;32.78;;;29.50;;
23222;SDS011;11780;13.904;100.620;2024-01-10T06:04:00;33.83;;;29.23;;
23222;SDS011;11780;13.904;100.620;2024-01-10T06:06:31;32.03;;;28.65;;
23222;SDS011;11780;13.904;100.620;2024-01-10T06:09:01;35.03;;;30.10;;
23222;SDS011;11780;13.904;100.620;2024-01-10T06:11:32;32.97;;;29.60;;
23222;SDS011;11780;13.904;100.620;2024-01-10T06:14:02;32.95;;;29.75;;
23222;SDS011;11780;13.904;100.620;2024-01-10T06:16:33;33.73;;;30.43;;
23222;SDS011;11780;13.904;100.620;2024-01-10T06:19:03;33.13;;;29.17;;
23222;SDS011;11780;13.904;100.620;2024-01-10T06:21:34;33.60;;;29.90;;
23222;SDS011;11780;13.904;100.620;2024-01-10T06:24:04;31.85;;;28.70;;
23222;SDS011;11780;13.904;100.620;2024-01-10T06:26:35;32.17;;;28.87;;
23222;SDS011;11780;13.904;100.620;2024-01-10T06:29:05;32.67;;;29.45;;
23222;SDS011;11780;13.904;100.620;2024-01-10T06:31:35;31.02;;;27.80;;
23222;SDS011;11780;13.904;100.620;2024-01-10T06:34:06;32.40;;;29.05;;
23222;SDS011;11780;13.904;100.620;2024-01-10T06:36:36;31.37;;;28.13;;
23222;SDS011;11780;13.904;100.620;2024-01-10T06:41:48;31.90;;;28.75;;
23222;SDS011;11780;13.904;100.620;2024-01-10T06:44:19;31.50;;;28.20;;
23222;SDS011;11780;13.904;100.620;2024-01-10T06:46:50;31.20;;;28.15;;
23222;SDS011;11780;13.904;100.620;2024-01-10T06:49:21;28.75;;;25.85;;
23222;SDS011;11780;13.904;100.620;2024-01-10T06:51:51;29.00;;;26.23;;
23222;SDS011;11780;13.904;100.620;2024-01-10T06:54:21;31.73;;;27.27;;
23222;SDS011;11780;13.904;100.620;2024-01-10T06:56:52;30.92;;;27.48;;
23222;SDS011;11780;13.904;100.620;2024-01-10T06:59:22;30.15;;;27.05;;
23222;SDS011;11780;13.904;100.620;2024-01-10T07:01:53;30.77;;;27.50;;
23222;SDS011;11780;13.904;100.620;2024-01-10T07:04:25;31.45;;;28.35;;
23222;SDS011;11780;13.904;100.620;2024-01-10T07:06:57;29.77;;;26.65;;
23222;SDS011;11780;13.904;100.620;2024-01-10T07:09:27;32.40;;;27.10;;
23222;SDS011;11780;13.904;100.620;2024-01-10T07:11:58;29.83;;;26.90;;
23222;SDS011;11780;13.904;100.620;2024-01-10T07:14:28;31.38;;;26.63;;
23222;SDS011;11780;13.904;100.620;2024-01-10T07:16:59;29.10;;;26.13;;
23222;SDS011;11780;13.904;100.620;2024-01-10T07:19:30;30.63;;;26.48;;
23222;SDS011;11780;13.904;100.620;2024-01-10T07:22:01;29.33;;;26.02;;
23222;SDS011;11780;13.904;100.620;2024-01-10T07:24:31;28.57;;;25.57;;
23222;SDS011;11780;13.904;100.620;2024-01-10T07:27:01;28.55;;;25.80;;
23222;SDS011;11780;13.904;100.620;2024-01-10T07:29:32;26.92;;;24.38;;
23222;SDS011;11780;13.904;100.620;2024-01-10T07:32:02;27.52;;;24.77;;
23222;SDS011;11780;13.904;100.620;2024-01-10T07:34:33;27.73;;;24.97;;
23222;SDS011;11780;13.904;100.620;2024-01-10T07:37:03;27.43;;;24.73;;
23222;SDS011;11780;13.904;100.620;2024-01-10T07:39:34;27.85;;;25.05;;
23222;SDS011;11780;13.904;100.620;2024-01-10T07:42:04;28.63;;;25.67;;
23222;SDS011;11780;13.904;100.620;2024-01-10T07:44:35;28.93;;;25.83;;
23222;SDS011;11780;13.904;100.620;2024-01-10T07:47:05;28.73;;;25.33;;
23222;SDS011;11780;13.904;100.620;2024-01-10T07:49:37;31.15;;;25.40;;
23222;SDS011;11780;13.904;100.620;2024-01-10T07:52:07;28.17;;;25.33;;
23222;SDS011;11780;13.904;100.620;2024-01-10T07:54:37;28.42;;;25.08;;
23222;SDS011;11780;13.904;100.620;2024-01-10T07:57:08;27.38;;;24.52;;
23222;SDS011;11780;13.904;100.620;2024-01-10T07:59:38;28.33;;;25.30;;
23222;SDS011;11780;13.904;100.620;2024-01-10T08:02:09;27.33;;;23.65;;
23222;SDS011;11780;13.904;100.620;2024-01-10T13:55:56;26.65;;;23.52;;
23222;SDS011;11780;13.904;100.620;2024-01-10T14:00:57;27.38;;;22.92;;
23222;SDS011;11780;13.904;100.620;2024-01-10T14:03:29;26.17;;;23.50;;
23222;SDS011;11780;13.904;100.620;2024-01-10T14:06:00;27.83;;;24.85;;
23222;SDS011;11780;13.904;100.620;2024-01-10T14:08:31;24.75;;;22.27;;
23222;SDS011;11780;13.904;100.620;2024-01-10T14:11:01;26.33;;;23.63;;
23222;SDS011;11780;13.904;100.620;2024-01-10T14:13:32;25.27;;;22.70;;
23222;SDS011;11780;13.904;100.620;2024-01-10T14:16:04;26.60;;;23.90;;
23222;SDS011;11780;13.904;100.620;2024-01-10T14:18:34;26.10;;;23.40;;
23222;SDS011;11780;13.904;100.620;2024-01-10T14:21:05;27.17;;;24.27;;
23222;SDS011;11780;13.904;100.620;2024-01-10T14:23:35;26.85;;;24.13;;
23222;SDS011;11780;13.904;100.620;2024-01-10T14:26:06;26.63;;;23.87;;
23222;SDS011;11780;13.904;100.620;2024-01-10T14:28:36;26.33;;;22.77;;
23222;SDS011;11780;13.904;100.620;2024-01-10T14:31:07;27.17;;;24.48;;
23222;SDS011;11780;13.904;100.620;2024-01-10T14:33:55;24.48;;;21.98;;
23222;SDS011;11780;13.904;100.620;2024-01-10T14:36:26;26.08;;;23.58;;
23222;SDS011;11780;13.904;100.620;2024-01-10T14:38:57;26.83;;;24.00;;
23222;SDS011;11780;13.904;100.620;2024-01-10T14:41:28;25.98;;;23.27;;
23222;SDS011;11780;13.904;100.620;2024-01-10T14:43:58;27.10;;;24.38;;
23222;SDS011;11780;13.904;100.620;2024-01-10T14:46:29;26.83;;;24.23;;
23222;SDS011;11780;13.904;100.620;2024-01-10T14:48:59;27.10;;;24.33;;
23222;SDS011;11780;13.904;100.620;2024-01-10T14:51:30;28.07;;;25.20;;
23222;SDS011;11780;13.904;100.620;2024-01-10T14:54:00;29.17;;;26.33;;
23222;SDS011;11780;13.904;100.620;2024-01-10T14:56:33;27.95;;;25.13;;
23222;SDS011;11780;13.904;100.620;2024-01-10T14:59:07;30.00;;;26.83;;
23222;SDS011;11780;13.904;100.620;2024-01-10T15:01:43;27.55;;;25.05;;
23222;SDS011;11780;13.904;100.620;2024-01-10T15:04:15;28.13;;;23.90;;
23222;SDS011;11780;13.904;100.620;2024-01-10T15:09:16;28.10;;;23.30;;
23222;SDS011;11780;13.904;100.620;2024-01-10T15:11:46;27.73;;;23.60;;
23222;SDS011;11780;13.904;100.620;2024-01-10T15:14:17;26.07;;;23.23;;
23222;SDS011;11780;13.904;100.620;2024-01-10T15:16:48;26.37;;;22.93;;
23222;SDS011;11780;13.904;100.620;2024-01-10T15:19:18;26.67;;;24.02;;
23222;SDS011;11780;13.904;100.620;2024-01-10T15:21:49;28.23;;;25.30;;
23222;SDS011;11780;13.904;100.620;2024-01-10T15:24:19;27.97;;;25.20;;
23222;SDS011;11780;13.904;100.620;2024-01-10T15:26:50;31.25;;;24.70;;
23222;SDS011;11780;13.904;100.620;2024-01-10T15:29:22;29.38;;;26.38;;
23222;SDS011;11780;13.904;100.620;2024-01-10T15:31:53;29.07;;;25.00;;
23222;SDS011;11780;13.904;100.620;2024-01-10T15:34:23;29.20;;;26.30;;
23222;SDS011;11780;13.904;100.620;2024-01-10T15:36:54;28.07;;;25.10;;
23222;SDS011;11780;13.904;100.620;2024-01-10T15:39:24;29.63;;;26.52;;
23222;SDS011;11780;13.904;100.620;2024-01-10T15:41:55;30.02;;;26.95;;
23222;SDS011;11780;13.904;100.620;2024-01-10T15:44:26;28.60;;;25.77;;
23222;SDS011;11780;13.904;100.620;2024-01-10T15:46:56;30.25;;;27.17;;
23222;SDS011;11780;13.904;100.620;2024-01-10T15:49:27;29.10;;;26.20;;
23222;SDS011;11780;13.904;100.620;2024-01-10T15:51:57;32.20;;;28.80;;
23222;SDS011;11780;13.904;100.620;2024-01-10T15:54:28;28.53;;;25.50;;
23222;SDS011;11780;13.904;100.620;2024-01-10T15:56:58;30.60;;;27.52;;
23222;SDS011;11780;13.904;100.620;2024-01-10T15:59:28;30.80;;;27.65;;
23222;SDS011;11780;13.904;100.620;2024-01-10T16:01:59;30.13;;;27.17;;
23222;SDS011;11780;13.904;100.620;2024-01-10T16:04:31;34.38;;;30.90;;
23222;SDS011;11780;13.904;100.620;2024-01-10T16:07:01;31.90;;;28.63;;
23222;SDS011;11780;13.904;100.620;2024-01-10T16:09:31;32.33;;;29.05;;
23222;SDS011;11780;13.904;100.620;2024-01-10T16:12:02;32.72;;;29.42;;
23222;SDS011;11780;13.904;100.620;2024-01-10T16:14:33;30.65;;;27.52;;
23222;SDS011;11780;13.904;100.620;2024-01-10T16:17:04;30.67;;;27.75;;
23222;SDS011;11780;13.904;100.620;2024-01-10T16:19:34;31.20;;;28.10;;
23222;SDS011;11780;13.904;100.620;2024-01-10T16:22:05;31.75;;;28.60;;
23222;SDS011;11780;13.904;100.620;2024-01-10T16:24:35;31.02;;;27.80;;
23222;SDS011;11780;13.904;100.620;2024-01-10T16:27:06;32.67;;;29.45;;
23222;SDS011;11780;13.904;100.620;2024-01-10T16:29:36;31.95;;;28.95;;
23222;SDS011;11780;13.904;100.620;2024-01-10T16:32:07;31.00;;;28.10;;
23222;SDS011;11780;13.904;100.620;2024-01-10T16:34:37;30.52;;;27.52;;
23222;SDS011;11780;13.904;100.620;2024-01-10T16:37:08;30.93;;;28.13;;
23222;SDS011;11780;13.904;100.620;2024-01-10T16:39:38;28.67;;;25.67;;
23222;SDS011;11780;13.904;100.620;2024-01-10T16:42:10;30.52;;;27.45;;
23222;SDS011;11780;13.904;100.620;2024-01-10T16:44:43;31.80;;;28.67;;
23222;SDS011;11780;13.904;100.620;2024-01-10T16:47:13;32.13;;;28.87;;
23222;SDS011;11780;13.904;100.620;2024-01-10T16:49:44;30.58;;;27.67;;
23222;SDS011;11780;13.904;100.620;2024-01-10T16:52:15;31.13;;;27.97;;
23222;SDS011;11780;13.904;100.620;2024-01-10T16:54:45;29.85;;;26.95;;
23222;SDS011;11780;13.904;100.620;2024-01-10T16:57:16;30.48;;;27.48;;
23222;SDS011;11780;13.904;100.620;2024-01-10T16:59:47;29.70;;;26.90;;
23222;SDS011;11780;13.904;100.620;2024-01-10T17:04:48;29.92;;;26.92;;
23222;SDS011;11780;13.904;100.620;2024-01-10T17:07:19;29.23;;;26.57;;
23222;SDS011;11780;13.904;100.620;2024-01-10T17:09:49;29.95;;;27.10;;
23222;SDS011;11780;13.904;100.620;2024-01-10T17:14:51;30.33;;;27.37;;
23222;SDS011;11780;13.904;100.620;2024-01-10T17:17:22;29.50;;;26.80;;
23222;SDS011;11780;13.904;100.620;2024-01-10T17:19:52;30.20;;;27.33;;
23222;SDS011;11780;13.904;100.620;2024-01-10T17:22:23;30.50;;;27.70;;
23222;SDS011;11780;13.904;100.620;2024-01-10T17:24:56;30.75;;;27.60;;
23222;SDS011;11780;13.904;100.620;2024-01-10T17:27:27;30.10;;;26.90;;
23222;SDS011;11780;13.904;100.620;2024-01-10T17:29:57;31.00;;;27.90;;
23222;SDS011;11780;13.904;100.620;2024-01-10T17:32:28;30.15;;;27.20;;
23222;SDS011;11780;13.904;100.620;2024-01-10T17:34:59;32.25;;;29.25;;
23222;SDS011;11780;13.904;100.620;2024-01-10T17:37:30;31.75;;;28.42;;
23222;SDS011;11780;13.904;100.620;2024-01-10T17:40:00;30.98;;;27.85;;
23222;SDS011;11780;13.904;100.620;2024-01-10T17:42:31;29.75;;;26.88;;
23222;SDS011;11780;13.904;100.620;2024-01-10T17:45:01;31.58;;;28.25;;
23222;SDS011;11780;13.904;100.620;2024-01-10T17:47:31;29.42;;;26.52;;
23222;SDS011;11780;13.904;100.620;2024-01-10T17:50:02;30.95;;;28.05;;
23222;SDS011;11780;13.904;100.620;2024-01-10T17:52:33;33.65;;;30.23;;
23222;SDS011;11780;13.904;100.620;2024-01-10T17:55:04;32.33;;;28.83;;
23222;SDS011;11780;13.904;100.620;2024-01-10T17:57:35;33.20;;;29.70;;
23222;SDS011;11780;13.904;100.620;2024-01-10T18:00:05;32.08;;;28.95;;
23222;SDS011;11780;13.904;100.620;2024-01-10T18:02:38;36.33;;;31.25;;
23222;SDS011;11780;13.904;100.620;2024-01-10T18:05:09;32.00;;;28.65;;
23222;SDS011;11780;13.904;100.620;2024-01-10T18:07:40;33.10;;;29.67;;
23222;SDS011;11780;13.904;100.620;2024-01-10T18:10:10;32.40;;;29.25;;
23222;SDS011;11780;13.904;100.620;2024-01-10T18:12:41;31.33;;;28.07;;
23222;SDS011;11780;13.904;100.620;2024-01-10T18:15:11;30.88;;;27.63;;
23222;SDS011;11780;13.904;100.620;2024-01-10T18:17:42;31.23;;;27.90;;
23222;SDS011;11780;13.904;100.620;2024-01-10T18:20:12;30.10;;;27.40;;
23222;SDS011;11780;13.904;100.620;2024-01-10T18:22:44;30.33;;;27.30;;
23222;SDS011;11780;13.904;100.620;2024-01-10T18:25:15;30.47;;;27.43;;
23222;SDS011;11780;13.904;100.620;2024-01-10T18:27:46;29.07;;;26.27;;
23222;SDS011;11780;13.904;100.620;2024-01-10T18:30:16;29.85;;;26.85;;
23222;SDS011;11780;13.904;100.620;2024-01-10T18:32:47;27.73;;;24.88;;
23222;SDS011;11780;13.904;100.620;2024-01-10T18:35:19;28.73;;;25.83;;
23222;SDS011;11780;13.904;100.620;2024-01-10T18:37:50;28.48;;;25.73;;
23222;SDS011;11780;13.904;100.620;2024-01-10T18:40:21;28.75;;;26.00;;
23222;SDS011;11780;13.904;100.620;2024-01-10T18:42:52;27.10;;;24.52;;
23222;SDS011;11780;13.904;100.620;2024-01-10T18:45:23;27.25;;;24.63;;
23222;SDS011;11780;13.904;100.620;2024-01-10T18:47:53;28.53;;;25.57;;
23222;SDS011;11780;13.904;100.620;2024-01-10T18:50:24;28.20;;;25.33;;
23222;SDS011;11780;13.904;100.620;2024-01-10T18:52:54;27.58;;;24.73;;
23222;SDS011;11780;13.904;100.620;2024-01-10T18:55:25;27.43;;;24.73;;
23222;SDS011;11780;13.904;100.620;2024-01-10T18:57:56;28.17;;;25.05;;
23222;SDS011;11780;13.904;100.620;2024-01-10T19:00:27;26.07;;;23.53;;
23222;SDS011;11780;13.904;100.620;2024-01-10T19:02:58;26.57;;;23.90;;
23222;SDS011;11780;13.904;100.620;2024-01-10T19:05:29;27.40;;;24.50;;
23222;SDS011;11780;13.904;100.620;2024-01-10T19:08:00;27.00;;;24.40;;
23222;SDS011;11780;13.904;100.620;2024-01-10T19:10:31;25.77;;;23.20;;
23222;SDS011;11780;13.904;100.620;2024-01-10T19:13:01;27.20;;;24.60;;
23222;SDS011;11780;13.904;100.620;2024-01-10T19:15:32;27.20;;;24.35;;
23222;SDS011;11780;13.904;100.620;2024-01-10T19:18:03;26.47;;;23.87;;
23222;SDS011;11780;13.904;100.620;2024-01-10T19:20:34;26.60;;;24.00;;
23222;SDS011;11780;13.904;100.620;2024-01-10T19:25:35;27.23;;;24.63;;
23222;SDS011;11780;13.904;100.620;2024-01-10T19:28:05;28.17;;;25.17;;
23222;SDS011;11780;13.904;100.620;2024-01-10T19:30:36;26.77;;;23.80;;
23222;SDS011;11780;13.904;100.620;2024-01-10T19:33:06;27.23;;;24.50;;
23222;SDS011;11780;13.904;100.620;2024-01-10T19:35:37;26.83;;;24.13;;
23222;SDS011;11780;13.904;100.620;2024-01-10T19:38:08;27.20;;;24.50;;
23222;SDS011;11780;13.904;100.620;2024-01-10T19:40:39;26.97;;;24.13;;
23222;SDS011;11780;13.904;100.620;2024-01-10T19:43:09;26.10;;;23.60;;
23222;SDS011;11780;13.904;100.620;2024-01-10T19:48:11;26.63;;;23.98;;
23222;SDS011;11780;13.904;100.620;2024-01-10T19:50:42;25.07;;;22.57;;
23222;SDS011;11780;13.904;100.620;2024-01-10T19:53:12;26.37;;;23.77;;
23222;SDS011;11780;13.904;100.620;2024-01-10T19:55:43;26.27;;;23.57;;
23222;SDS011;11780;13.904;100.620;2024-01-10T19:58:14;26.57;;;23.83;;
23222;SDS011;11780;13.904;100.620;2024-01-10T20:00:44;25.42;;;23.08;;
23222;SDS011;11780;13.904;100.620;2024-01-10T20:03:15;26.27;;;23.60;;
23222;SDS011;11780;13.904;100.620;2024-01-10T20:05:45;25.73;;;23.23;;
23222;SDS011;11780;13.904;100.620;2024-01-10T20:08:16;26.02;;;23.13;;
23222;SDS011;11780;13.904;100.620;2024-01-10T20:10:47;25.93;;;23.40;;
23222;SDS011;11780;13.904;100.620;2024-01-10T20:13:17;25.53;;;22.87;;
23222;SDS011;11780;13.904;100.620;2024-01-10T20:15:48;25.67;;;23.37;;
23222;SDS011;11780;13.904;100.620;2024-01-10T20:18:19;24.40;;;22.02;;
23222;SDS011;11780;13.904;100.620;2024-01-10T20:20:49;24.35;;;21.77;;
23222;SDS011;11780;13.904;100.620;2024-01-10T20:23:20;26.83;;;23.30;;
23222;SDS011;11780;13.904;100.620;2024-01-10T20:25:51;24.98;;;22.25;;
23222;SDS011;11780;13.904;100.620;2024-01-10T20:28:22;25.43;;;22.93;;
23222;SDS011;11780;13.904;100.620;2024-01-10T20:30:52;25.77;;;23.17;;